Pagrindinis puslapis
METAR-TAF:

METAR-TAF

Oro uostai :

Jaroslavlis, Rusija

platuma: 57-33-38N, ilguma: 040-09-27E, Aukštis: 87 m

Dabartinis oras

Ataskaita buvo paskelbta 17 minutes, ne 08:30 UTC
Vėjas 2 kt iš Rytų/Pietryčių
Temperatūra 24°C
Drėgmė 44%
Slėgis 1016 hPa
Matomumas 10 km arba daugiau
nėra debesų žemiau 1500 m ir nėra kamuolinių lietaus debesų

METAR: UUDL 170830Z 12001MPS CAVOK 24/11 Q1016 R23/010060 NOSIG RMK QFE754

Laikas: 11:47 (08:47 UTC)

Prognozė

Ataskaita buvo paskelbta 47 minutes, ne 08:00 UTC
Prognozė galioja nuo 17 metu 09 UTC su 18 metu 09 UTC
Vėjas 6 kt iš Rytų su gūsio iki 16 kt
Matomumas 10 km arba daugiau
Su prošvaistėmis ne aukštis 4000 ft
Tikimybė 40% :
Laikinai
nuo 17 metu 13 UTC su 17 metu 21 UTC
Su prošvaistėmis ne aukštis 1500 ft, Liūtiniai kamuoliniai debesys.
perkūnija, lietus

TAF: UUDL 170800Z 1709/1809 09003G08MPS 9999 BKN040 TX26/1712Z TN14/1801Z PROB40 TEMPO 1713/1721 -TSRA BKN015CB

Orai ataskaitas ir orų prognozės (METAR, TAF).

turimą stotys yra geltonos ir raudonos taškus žemėlapyje.

Perkelti pele per norėdami pamatyti stoties vardą.

Tada spustelėkite, norėdami matyti oro stebėjimo ir prognozės.

Norėdami pakeisti žemėlapį: spustelėkite ant žalios mygtukų su juodo kryžiaus žemyn,; žalią mygtuką su brūkšneliu, jei norite nutolinti; arba žalių rodyklių gretimoms žemėlapius.


METAR-TAF: